Time;durP1;ratioP1;P1;durP2;ratioP2;P2;SDS_P1;SDS_P2;PMS_P1;PMS_P2;Temp;Humidity;BMP_temperature;BMP_pressure;BME280_temperature;BME280_humidity;BME280_pressure;Samples;Min_cycle;Max_cycle;Signal;HPM_P1;HPM_P2
2024/03/11 00:01:38;;;;;;;;;;;;;;;9.74;68.53;99791.03;5054505;28;19940;-83
2024/03/11 00:04:03;;;;;;;;;;;;;;;9.71;68.50;99792.19;5054691;28;19919;-84
2024/03/11 00:06:29;;;;;;;;;;;;;;;9.71;68.74;99797.47;5054552;28;19992;-83
2024/03/11 00:08:55;;;;;;;;;;;;;;;9.67;69.57;99798.78;5053246;28;19913;-83
2024/03/11 00:11:24;;;;;;;;;;;;;;;9.68;69.13;99802.25;5054504;28;19924;-83
2024/03/11 00:13:50;;;;;;;;;;;;;;;9.65;69.43;99802.56;5054199;28;19916;-84
2024/03/11 00:16:16;;;;;;;;;;;;;;;9.68;68.75;99802.25;5054258;28;19913;-83
2024/03/11 00:18:42;;;;;;;;;;;;;;;9.69;68.91;99799.44;5052920;28;20061;-83
2024/03/11 00:21:07;;;;;;;;;;;;;;;9.69;68.56;99802.09;5054210;28;19924;-83
2024/03/11 00:23:33;;;;;;;;;;;;;;;9.66;68.85;99801.56;5054113;28;20445;-83
2024/03/11 00:25:59;;;;;;;;;;;;;;;9.64;68.26;99806.19;5053989;28;19912;-83
2024/03/11 00:28:24;;;;;;;;;;;;;;;9.63;68.81;99810.63;5054065;28;19913;-83
2024/03/11 00:30:50;;;;;;;;;;;;;;;9.60;68.79;99805.69;5053978;28;19999;-83
2024/03/11 00:33:17;;;;;;;;;;;;;;;9.59;69.28;99796.13;5054086;28;19912;-83
2024/03/11 00:35:43;;;;;;;;;;;;;;;9.61;68.79;99795.97;5054025;28;19912;-84
2024/03/11 00:38:08;;;;;;;;;;;;;;;9.59;68.87;99784.75;5054051;28;19924;-84
2024/03/11 00:40:34;;;;;;;;;;;;;;;9.60;68.29;99779.31;5052628;28;19913;-83
2024/03/11 00:42:59;;;;;;;;;;;;;;;9.61;68.82;99780.16;5053846;28;19927;-83
2024/03/11 00:45:25;;;;;;;;;;;;;;;9.56;68.66;99770.09;5052598;28;19927;-83
2024/03/11 00:47:50;;;;;;;;;;;;;;;9.55;68.92;99769.28;5053856;28;19913;-83
2024/03/11 00:50:15;;;;;;;;;;;;;;;9.55;68.62;99758.75;5053135;28;20003;-83
2024/03/11 00:52:41;;;;;;;;;;;;;;;9.55;69.21;99750.81;5053618;28;19960;-83
2024/03/11 00:55:08;;;;;;;;;;;;;;;9.53;69.45;99744.91;5053618;28;19978;-82
2024/03/11 00:57:35;;;;;;;;;;;;;;;9.57;69.02;99753.31;5053712;28;20381;-83
2024/03/11 01:00:01;;;;;;;;;;;;;;;9.59;69.56;99761.88;5052338;28;19913;-83
2024/03/11 01:02:26;;;;;;;;;;;;;;;9.62;69.16;99765.97;5051978;28;19986;-83
2024/03/11 01:04:52;;;;;;;;;;;;;;;9.64;69.20;99753.44;5053307;28;19969;-83
2024/03/11 01:07:18;;;;;;;;;;;;;;;9.65;69.34;99750.66;5053392;28;19920;-84
2024/03/11 01:09:43;;;;;;;;;;;;;;;9.65;69.38;99749.81;5053557;28;20361;-84
2024/03/11 01:12:08;;;;;;;;;;;;;;;9.64;69.95;99742.91;5053357;28;19917;-83
2024/03/11 01:14:34;;;;;;;;;;;;;;;9.64;69.50;99741.09;5053318;28;20046;-83
2024/03/11 01:17:01;;;;;;;;;;;;;;;9.65;69.42;99744.56;5053229;28;19923;-83
2024/03/11 01:19:27;;;;;;;;;;;;;;;9.68;70.04;99738.97;5053190;28;20393;-83
2024/03/11 01:21:53;;;;;;;;;;;;;;;9.67;69.96;99747.88;5051978;28;19913;-84
2024/03/11 01:24:18;;;;;;;;;;;;;;;9.69;68.98;99748.53;5053184;28;20275;-83
2024/03/11 01:26:47;;;;;;;;;;;;;;;9.69;70.38;99741.44;5053064;28;19913;-83
2024/03/11 01:29:13;;;;;;;;;;;;;;;9.67;70.06;99748.69;5051619;28;20102;-83
2024/03/11 01:31:38;;;;;;;;;;;;;;;9.71;69.29;99746.56;5052893;28;20023;-83
2024/03/11 01:34:03;;;;;;;;;;;;;;;9.73;69.05;99744.56;5052919;28;19913;-84
2024/03/11 01:36:34;;;;;;;;;;;;;;;9.71;68.85;99741.28;5053018;28;20235;-84
2024/03/11 01:38:59;;;;;;;;;;;;;;;9.69;68.75;99732.72;5052839;28;19917;-83
2024/03/11 01:41:24;;;;;;;;;;;;;;;9.62;68.31;99729.91;5051714;28;19999;-83
2024/03/11 01:43:49;;;;;;;;;;;;;;;9.61;68.41;99717.72;5052832;28;19917;-83
2024/03/11 01:46:15;;;;;;;;;;;;;;;9.58;68.36;99712.78;5051932;28;19912;-83
2024/03/11 01:48:40;;;;;;;;;;;;;;;9.52;68.15;99718.72;5052681;28;19913;-83
2024/03/11 01:51:07;;;;;;;;;;;;;;;9.45;68.93;99721.19;5052668;28;19909;-83
2024/03/11 01:53:32;;;;;;;;;;;;;;;9.44;68.73;99722.19;5051140;28;19913;-83
2024/03/11 01:55:58;;;;;;;;;;;;;;;9.42;68.40;99723.34;5052282;28;20028;-82
2024/03/11 01:58:25;;;;;;;;;;;;;;;8.85;68.83;99631.97;5050967;28;19917;-83
2024/03/11 02:00:50;;;;;;;;;;;;;;;9.44;68.19;99716.09;5051481;28;19913;-84
2024/03/11 02:03:16;;;;;;;;;;;;;;;9.40;68.91;99712.97;5050774;28;20028;-84
2024/03/11 02:05:42;;;;;;;;;;;;;;;9.39;68.79;99727.13;5052198;28;19913;-84
2024/03/11 02:08:07;;;;;;;;;;;;;;;9.42;68.66;99728.59;5052095;28;20373;-84
2024/03/11 02:10:33;;;;;;;;;;;;;;;9.40;68.29;99728.78;5052065;28;19915;-84
2024/03/11 02:12:59;;;;;;;;;;;;;;;9.41;68.16;99722.50;5052166;28;20374;-83
2024/03/11 02:15:24;;;;;;;;;;;;;;;9.37;68.10;99710.66;5052208;28;19920;-84
2024/03/11 02:17:50;;;;;;;;;;;;;;;9.35;68.43;99717.91;5052026;28;20004;-84
2024/03/11 02:20:18;;;;;;;;;;;;;;;9.36;67.97;99700.28;5052254;28;19912;-84
2024/03/11 02:22:45;;;;;;;;;;;;;;;9.31;68.30;99689.41;5051988;28;19917;-84
2024/03/11 02:25:14;;;;;;;;;;;;;;;9.33;68.35;99696.16;5051974;28;19943;-84
2024/03/11 02:27:40;;;;;;;;;;;;;;;9.33;68.34;99690.91;5051889;28;20413;-84
2024/03/11 02:30:07;;;;;;;;;;;;;;;9.31;68.42;99692.06;5051816;28;20004;-85
2024/03/11 02:32:33;;;;;;;;;;;;;;;9.31;68.25;99694.69;5052923;28;19913;-84
2024/03/11 02:34:58;;;;;;;;;;;;;;;9.27;68.49;99688.94;5051862;28;19912;-83
2024/03/11 02:37:23;;;;;;;;;;;;;;;9.23;68.70;99690.25;5051619;28;19912;-84
2024/03/11 02:39:48;;;;;;;;;;;;;;;9.22;68.52;99710.50;5051822;28;20381;-83
2024/03/11 02:42:14;;;;;;;;;;;;;;;9.19;69.02;99718.72;5051825;28;19909;-83
2024/03/11 02:44:39;;;;;;;;;;;;;;;9.12;68.88;99727.47;5051583;28;19920;-83
2024/03/11 02:47:04;;;;;;;;;;;;;;;9.04;68.93;99736.19;5051580;28;20301;-83
2024/03/11 02:49:31;;;;;;;;;;;;;;;9.00;69.33;99740.13;5051522;28;19919;-83
2024/03/11 02:51:58;;;;;;;;;;;;;;;8.98;69.42;99744.72;5051618;28;19915;-83
2024/03/11 02:54:26;;;;;;;;;;;;;;;8.98;68.73;99743.91;5051622;28;19970;-83
2024/03/11 02:56:51;;;;;;;;;;;;;;;8.88;68.99;99736.97;5051478;28;20000;-83
2024/03/11 02:59:16;;;;;;;;;;;;;;;8.88;69.46;99742.22;5051884;28;20004;-83
2024/03/11 03:01:42;;;;;;;;;;;;;;;8.91;69.26;99746.34;5049988;28;20436;-83
2024/03/11 03:04:07;;;;;;;;;;;;;;;8.88;69.60;99739.59;5051434;28;19920;-83
2024/03/11 03:06:33;;;;;;;;;;;;;;;8.86;69.42;99740.75;5051371;28;20500;-84
2024/03/11 03:08:58;;;;;;;;;;;;;;;8.84;69.48;99735.63;5050096;28;19913;-84
2024/03/11 03:11:23;;;;;;;;;;;;;;;8.86;69.81;99727.56;5051261;28;19943;-84
2024/03/11 03:13:48;;;;;;;;;;;;;;;8.89;69.17;99724.63;5054486;28;20437;-83
2024/03/11 03:16:14;;;;;;;;;;;;;;;8.88;69.78;99720.34;5054132;28;19920;-84
2024/03/11 03:18:39;;;;;;;;;;;;;;;8.88;69.54;99723.78;5055241;28;19932;-84
2024/03/11 03:21:06;;;;;;;;;;;;;;;8.88;69.92;99713.25;5055231;28;19912;-84
2024/03/11 03:23:32;;;;;;;;;;;;;;;8.88;70.20;99718.53;5055275;28;19913;-83
2024/03/11 03:25:57;;;;;;;;;;;;;;;8.85;70.31;99720.66;5055324;28;20371;-83
2024/03/11 03:28:23;;;;;;;;;;;;;;;8.81;70.36;99721.97;5053637;28;20305;-83
2024/03/11 03:30:48;;;;;;;;;;;;;;;8.82;69.79;99723.63;5054988;28;19913;-83
2024/03/11 03:33:14;;;;;;;;;;;;;;;8.84;70.12;99719.00;5055052;28;19912;-84
2024/03/11 03:35:39;;;;;;;;;;;;;;;8.87;70.11;99718.69;5055099;28;19917;-84
2024/03/11 03:38:04;;;;;;;;;;;;;;;8.85;70.33;99726.75;5054983;28;20079;-84
2024/03/11 03:40:30;;;;;;;;;;;;;;;8.84;70.24;99725.09;5054943;28;19919;-82
2024/03/11 03:42:57;;;;;;;;;;;;;;;8.88;69.92;99726.41;5055226;28;19956;-82
2024/03/11 03:45:22;;;;;;;;;;;;;;;8.90;70.00;99724.44;5054938;28;20450;-83
2024/03/11 03:47:48;;;;;;;;;;;;;;;8.90;69.53;99727.09;5053652;28;20011;-83
2024/03/11 03:50:14;;;;;;;;;;;;;;;8.92;69.95;99729.59;5054995;28;19913;-83
2024/03/11 03:52:43;;;;;;;;;;;;;;;8.94;69.40;99721.53;5054911;28;20009;-84
2024/03/11 03:55:11;;;;;;;;;;;;;;;8.94;69.72;99726.78;5054711;28;19929;-84
2024/03/11 03:57:39;;;;;;;;;;;;;;;8.94;69.27;99722.34;5054783;28;19916;-83
2024/03/11 04:00:06;;;;;;;;;;;;;;;8.95;69.41;99728.44;5054690;28;19920;-84
2024/03/11 04:02:31;;;;;;;;;;;;;;;8.98;69.25;99736.84;5054430;28;20420;-83
2024/03/11 04:04:58;;;;;;;;;;;;;;;8.98;69.14;99736.00;5054615;28;19913;-83
2024/03/11 04:07:23;;;;;;;;;;;;;;;8.89;69.25;99733.34;5054568;28;19919;-83
2024/03/11 04:09:48;;;;;;;;;;;;;;;8.87;69.05;99735.31;5053144;28;19913;-84
2024/03/11 04:12:14;;;;;;;;;;;;;;;8.78;69.48;99735.47;5053238;28;19913;-83
2024/03/11 04:14:39;;;;;;;;;;;;;;;8.77;69.13;99728.53;5054429;28;19913;-84
2024/03/11 04:17:06;;;;;;;;;;;;;;;8.72;69.60;99736.09;5054523;28;19960;-83
2024/03/11 04:19:31;;;;;;;;;;;;;;;8.70;70.01;99724.91;5054323;28;19921;-84
2024/03/11 04:21:57;;;;;;;;;;;;;;;8.70;69.75;99728.38;5054410;28;19919;-83
2024/03/11 04:24:22;;;;;;;;;;;;;;;8.69;70.19;99733.78;5053483;28;19912;-83
2024/03/11 04:26:48;;;;;;;;;;;;;;;8.68;69.98;99742.66;5054456;28;20382;-84
2024/03/11 04:29:15;;;;;;;;;;;;;;;8.67;70.17;99747.13;5054192;28;19917;-82
2024/03/11 04:31:41;;;;;;;;;;;;;;;8.68;69.98;99751.41;5054119;28;20447;-84
2024/03/11 04:34:07;;;;;;;;;;;;;;;8.72;69.84;99741.38;5054141;28;19913;-83
2024/03/11 04:36:33;;;;;;;;;;;;;;;8.73;69.83;99753.53;5054057;28;20349;-84
2024/03/11 04:38:58;;;;;;;;;;;;;;;8.74;70.10;99755.19;5053880;28;19917;-83
2024/03/11 04:41:24;;;;;;;;;;;;;;;8.73;69.65;99754.38;5052538;28;19999;-83
2024/03/11 04:43:49;;;;;;;;;;;;;;;8.77;69.44;99768.03;5052482;28;19913;-83
2024/03/11 04:46:15;;;;;;;;;;;;;;;8.80;69.54;99767.72;5053660;28;19913;-83
2024/03/11 04:48:41;;;;;;;;;;;;;;;8.83;68.97;99764.75;5053795;28;19913;-83
2024/03/11 04:51:06;;;;;;;;;;;;;;;8.80;68.72;99763.28;5052543;28;19920;-84
2024/03/11 04:53:32;;;;;;;;;;;;;;;8.78;68.84;99764.41;5053729;28;19947;-84
2024/03/11 04:55:58;;;;;;;;;;;;;;;8.74;68.97;99760.47;5053623;28;19913;-84
2024/03/11 04:58:23;;;;;;;;;;;;;;;8.71;68.90;99758.97;5053778;28;19917;-83
2024/03/11 05:00:50;;;;;;;;;;;;;;;8.74;68.58;99757.81;5053584;28;20406;-82
2024/03/11 05:03:15;;;;;;;;;;;;;;;8.72;68.75;99762.44;5053426;28;19921;-84
2024/03/11 05:05:41;;;;;;;;;;;;;;;8.69;68.92;99750.41;5053459;28;19920;-84
2024/03/11 05:08:06;;;;;;;;;;;;;;;8.68;69.03;99761.94;5053323;28;19913;-83
2024/03/11 05:10:32;;;;;;;;;;;;;;;8.65;69.16;99759.63;5053383;28;19948;-84
2024/03/11 05:12:58;;;;;;;;;;;;;;;8.65;69.27;99754.34;5053431;28;20376;-83
2024/03/11 05:15:25;;;;;;;;;;;;;;;8.64;69.57;99746.63;5053366;28;19995;-84
2024/03/11 05:17:51;;;;;;;;;;;;;;;8.63;69.73;99742.34;5053115;28;20323;-83
2024/03/11 05:20:18;;;;;;;;;;;;;;;8.63;69.75;99752.84;5053266;28;19991;-84
2024/03/11 05:22:44;;;;;;;;;;;;;;;8.65;69.97;99753.53;5053314;28;19913;-84
2024/03/11 05:25:11;;;;;;;;;;;;;;;8.72;69.78;99757.16;5052846;28;19913;-83
2024/03/11 05:27:37;;;;;;;;;;;;;;;8.74;70.43;99755.19;5051761;28;19913;-84
2024/03/11 05:30:04;;;;;;;;;;;;;;;8.78;70.34;99764.41;5053052;28;19920;-84
2024/03/11 05:32:29;;;;;;;;;;;;;;;8.84;70.19;99761.13;5052979;28;19978;-83
2024/03/11 05:34:54;;;;;;;;;;;;;;;8.86;71.17;99772.34;5053262;28;20315;-83
2024/03/11 05:37:20;;;;;;;;;;;;;;;8.89;70.32;99778.09;5052816;28;19913;-84
2024/03/11 05:39:46;;;;;;;;;;;;;;;8.96;69.17;99780.13;5051835;28;19919;-84
2024/03/11 05:42:12;;;;;;;;;;;;;;;8.94;71.16;99782.09;5052658;28;19917;-84
2024/03/11 05:44:38;;;;;;;;;;;;;;;8.94;71.63;99788.19;5053024;28;19977;-83
2024/03/11 05:47:04;;;;;;;;;;;;;;;8.97;70.77;99773.88;5052889;28;19912;-84
2024/03/11 05:49:32;;;;;;;;;;;;;;;9.01;70.28;99776.00;5052509;28;19916;-83
2024/03/11 05:51:57;;;;;;;;;;;;;;;9.03;70.88;99774.03;5052328;28;20012;-84
2024/03/11 05:54:24;;;;;;;;;;;;;;;9.05;70.75;99758.06;5052407;28;19919;-84
2024/03/11 05:56:58;;;;;;;;;;;;;;;9.13;70.26;99760.72;5052406;28;19920;-83
2024/03/11 05:59:24;;;;;;;;;;;;;;;9.18;68.95;99767.13;5052396;28;19983;-84
2024/03/11 06:01:49;;;;;;;;;;;;;;;9.18;69.66;99774.22;5048975;28;20465;-84
2024/03/11 06:04:15;;;;;;;;;;;;;;;9.21;70.40;99773.91;5040997;28;19935;-83
2024/03/11 06:06:47;;;;;;;;;;;;;;;9.25;69.25;99777.84;5052360;28;19944;-84
2024/03/11 06:09:14;;;;;;;;;;;;;;;9.32;69.96;99781.47;5052299;28;19919;-83
2024/03/11 06:11:40;;;;;;;;;;;;;;;9.37;68.85;99780.97;5051079;28;20340;-83
2024/03/11 06:14:06;;;;;;;;;;;;;;;9.37;68.66;99789.72;5052102;28;19936;-83
2024/03/11 06:16:33;;;;;;;;;;;;;;;9.40;68.50;99778.03;5051720;28;20369;-83
2024/03/11 06:18:58;;;;;;;;;;;;;;;9.36;69.37;99777.53;5051874;28;19916;-84
2024/03/11 06:21:24;;;;;;;;;;;;;;;9.33;70.07;99769.94;5049270;28;20383;-82
2024/03/11 06:23:49;;;;;;;;;;;;;;;9.33;68.95;99774.41;5032088;28;19917;-84
2024/03/11 06:26:15;;;;;;;;;;;;;;;9.33;69.57;99767.31;5030656;28;20432;-84
2024/03/11 06:28:40;;;;;;;;;;;;;;;9.35;69.19;99770.59;5041934;28;19966;-83
2024/03/11 06:31:05;;;;;;;;;;;;;;;9.31;69.58;99777.19;5051889;28;19913;-83
2024/03/11 06:33:31;;;;;;;;;;;;;;;9.35;69.21;99769.78;5052164;28;19969;-84
2024/03/11 06:35:56;;;;;;;;;;;;;;;9.38;69.33;99774.72;5051918;28;20405;-84
2024/03/11 06:38:21;;;;;;;;;;;;;;;9.42;70.41;99773.41;5051840;28;19975;-83
2024/03/11 06:40:48;;;;;;;;;;;;;;;9.50;69.36;99773.41;5051611;28;19917;-84
2024/03/11 06:43:13;;;;;;;;;;;;;;;9.59;69.25;99782.94;5051263;28;19923;-84
2024/03/11 06:45:39;;;;;;;;;;;;;;;9.63;69.31;99779.00;5051603;28;20004;-83
2024/03/11 06:48:06;;;;;;;;;;;;;;;9.69;69.48;99762.53;5037007;28;20387;-83
2024/03/11 06:50:32;;;;;;;;;;;;;;;9.76;69.04;99760.06;5031166;28;19921;-84
2024/03/11 06:52:57;;;;;;;;;;;;;;;9.79;68.87;99765.81;5031450;28;19910;-84
2024/03/11 06:55:24;;;;;;;;;;;;;;;9.81;68.55;99765.66;5032605;28;19999;-83
2024/03/11 06:57:49;;;;;;;;;;;;;;;9.81;68.81;99763.00;5031465;28;19917;-84
2024/03/11 07:00:17;;;;;;;;;;;;;;;9.79;67.98;99757.09;5031629;28;19971;-85
2024/03/11 07:02:46;;;;;;;;;;;;;;;9.74;68.76;99768.13;5036290;28;19921;-83
2024/03/11 07:05:13;;;;;;;;;;;;;;;9.76;69.28;99763.53;5049511;28;19924;-84
2024/03/11 07:07:38;;;;;;;;;;;;;;;9.79;69.25;99762.34;5031632;28;19917;-85
2024/03/11 07:10:05;;;;;;;;;;;;;;;9.84;69.65;99744.22;5050725;28;20008;-85
2024/03/11 07:12:30;;;;;;;;;;;;;;;9.88;69.18;99746.34;5050369;28;19916;-84
2024/03/11 07:14:57;;;;;;;;;;;;;;;9.90;69.54;99762.00;5049435;28;20377;-84
2024/03/11 07:17:24;;;;;;;;;;;;;;;9.94;69.74;99759.84;5051007;28;19913;-84
2024/03/11 07:19:50;;;;;;;;;;;;;;;10.00;68.46;99751.28;5051069;28;19923;-84
2024/03/11 07:22:16;;;;;;;;;;;;;;;10.01;69.07;99768.75;5051101;28;19913;-83
2024/03/11 07:24:42;;;;;;;;;;;;;;;9.96;68.45;99761.34;5050918;28;19975;-83
2024/03/11 07:27:07;;;;;;;;;;;;;;;9.93;68.96;99753.75;5049553;28;20345;-84
2024/03/11 07:29:32;;;;;;;;;;;;;;;9.90;68.40;99754.09;5038049;28;19918;-83
2024/03/11 07:31:57;;;;;;;;;;;;;;;9.82;69.50;99754.13;5048612;28;19928;-82
2024/03/11 07:34:23;;;;;;;;;;;;;;;9.79;69.35;99751.81;5031426;28;20283;-83
2024/03/11 07:36:48;;;;;;;;;;;;;;;9.77;69.35;99749.34;5031204;28;19913;-83
2024/03/11 07:39:15;;;;;;;;;;;;;;;9.79;69.69;99754.44;5031079;28;19917;-83
2024/03/11 07:41:40;;;;;;;;;;;;;;;9.86;69.72;99760.69;5031175;28;19913;-83
2024/03/11 07:44:06;;;;;;;;;;;;;;;9.91;69.01;99761.00;5031079;28;20355;-83
2024/03/11 07:46:31;;;;;;;;;;;;;;;9.90;69.20;99759.38;5035751;28;20388;-81
2024/03/11 07:48:59;;;;;;;;;;;;;;;9.93;69.38;99753.75;5038837;28;20004;-80
2024/03/11 07:51:25;;;;;;;;;;;;;;;9.96;70.52;99752.59;5031391;28;19920;-80
2024/03/11 07:53:50;;;;;;;;;;;;;;;10.02;70.34;99749.28;5049324;28;19917;-81
2024/03/11 07:56:16;;;;;;;;;;;;;;;10.08;70.65;99749.44;5066765;28;20341;-80
2024/03/11 07:58:41;;;;;;;;;;;;;;;10.18;69.07;99744.78;5053495;28;20047;-80
2024/03/11 08:01:06;;;;;;;;;;;;;;;10.24;68.34;99745.13;5034766;28;19979;-80
2024/03/11 08:03:32;;;;;;;;;;;;;;;10.25;68.95;99744.94;5046485;28;20004;-79
2024/03/11 08:05:58;;;;;;;;;;;;;;;10.26;69.79;99746.59;5034481;28;19964;-80
2024/03/11 08:08:24;;;;;;;;;;;;;;;10.32;69.53;99747.72;5034396;28;19917;-80
2024/03/11 08:10:50;;;;;;;;;;;;;;;10.36;69.97;99743.75;5034661;28;19917;-79
2024/03/11 08:13:16;;;;;;;;;;;;;;;10.40;68.88;99745.06;5034457;28;19913;-80
2024/03/11 08:15:41;;;;;;;;;;;;;;;10.46;69.23;99739.94;5034766;28;20400;-80
2024/03/11 08:18:07;;;;;;;;;;;;;;;10.50;69.44;99733.31;5034585;28;19921;-80
2024/03/11 08:20:32;;;;;;;;;;;;;;;10.61;69.04;99741.84;5044696;28;20335;-80
2024/03/11 08:22:58;;;;;;;;;;;;;;;10.66;69.31;99735.03;5054272;28;19999;-80
2024/03/11 08:25:27;;;;;;;;;;;;;;;10.71;69.08;99737.16;5053586;28;20054;-80
2024/03/11 08:27:53;;;;;;;;;;;;;;;10.77;69.58;99742.56;5053918;28;20535;-80
2024/03/11 08:30:19;;;;;;;;;;;;;;;10.88;68.16;99738.72;5038694;28;19920;-80
2024/03/11 08:32:46;;;;;;;;;;;;;;;10.91;67.97;99735.72;5036412;28;20413;-80
2024/03/11 08:35:14;;;;;;;;;;;;;;;10.98;68.38;99728.72;5046355;28;20290;-80
2024/03/11 08:37:41;;;;;;;;;;;;;;;11.05;68.23;99729.66;5053905;28;20136;-80
2024/03/11 08:40:08;;;;;;;;;;;;;;;11.15;67.92;99724.19;5054194;28;19913;-80
2024/03/11 08:42:34;;;;;;;;;;;;;;;11.25;67.46;99726.56;5052264;28;19916;-80
2024/03/11 08:44:59;;;;;;;;;;;;;;;11.30;67.54;99724.22;5052122;28;20322;-80
2024/03/11 08:47:26;;;;;;;;;;;;;;;11.36;68.35;99734.06;5053838;28;19963;-80
2024/03/11 08:49:53;;;;;;;;;;;;;;;11.51;67.90;99728.81;5035118;28;20374;-79
2024/03/11 08:52:19;;;;;;;;;;;;;;;11.59;68.50;99724.28;5033153;28;20007;-80
2024/03/11 08:54:44;;;;;;;;;;;;;;;11.73;68.07;99717.38;5040445;28;20371;-80
2024/03/11 08:57:16;;;;;;;;;;;;;;;11.86;68.00;99722.88;5033392;28;19913;-80
2024/03/11 08:59:41;;;;;;;;;;;;;;;11.97;68.39;99719.81;5035580;28;19928;-79
2024/03/11 09:02:07;;;;;;;;;;;;;;;12.12;68.56;99721.63;5034560;28;20317;-80
2024/03/11 09:04:33;;;;;;;;;;;;;;;12.23;67.66;99713.22;5044014;28;19977;-80
2024/03/11 09:06:58;;;;;;;;;;;;;;;12.34;66.78;99715.41;5038456;28;20310;-82
2024/03/11 09:09:27;;;;;;;;;;;;;;;12.43;67.09;99722.22;5033657;28;20011;-80
2024/03/11 09:11:56;;;;;;;;;;;;;;;12.52;67.55;99705.22;5040307;28;19919;-81
2024/03/11 09:14:25;;;;;;;;;;;;;;;12.56;67.31;99695.06;5041766;28;19945;-81
2024/03/11 09:16:52;;;;;;;;;;;;;;;12.61;66.92;99695.34;5049130;28;19923;-82
2024/03/11 09:19:17;;;;;;;;;;;;;;;12.65;67.10;99697.44;5052727;28;19920;-81
2024/03/11 09:21:42;;;;;;;;;;;;;;;12.71;67.14;99690.59;5052825;28;19917;-82
2024/03/11 09:24:08;;;;;;;;;;;;;;;12.81;67.19;99691.09;5050608;28;20430;-81
2024/03/11 09:26:33;;;;;;;;;;;;;;;12.92;66.94;99690.59;5048803;28;19928;-82
2024/03/11 09:28:58;;;;;;;;;;;;;;;13.00;67.09;99687.81;5040155;28;19917;-82
2024/03/11 09:31:24;;;;;;;;;;;;;;;13.14;65.84;99690.56;5044529;28;19913;-82
2024/03/11 09:33:50;;;;;;;;;;;;;;;13.21;66.33;99687.00;5042088;28;20409;-82
2024/03/11 09:36:15;;;;;;;;;;;;;;;13.34;65.83;99675.69;5038857;28;19913;-82
2024/03/11 09:38:40;;;;;;;;;;;;;;;13.43;65.73;99676.38;5050098;28;19935;-81
2024/03/11 09:41:14;;;;;;;;;;;;;;;13.54;65.97;99668.72;5047886;28;19923;-81
2024/03/11 09:43:41;;;;;;;;;;;;;;;13.78;65.58;99666.59;5038654;28;19939;-81
2024/03/11 09:46:07;;;;;;;;;;;;;;;14.06;65.23;99659.41;5036450;28;19936;-81
2024/03/11 09:48:33;;;;;;;;;;;;;;;14.38;64.85;99667.72;5039615;28;20313;-81
2024/03/11 09:50:58;;;;;;;;;;;;;;;14.53;64.38;99661.25;5056208;28;19919;-81
2024/03/11 09:53:25;;;;;;;;;;;;;;;14.62;64.29;99657.38;5049465;28;19912;-81
2024/03/11 09:55:54;;;;;;;;;;;;;;;14.72;64.10;99661.50;5052395;28;19909;-81
2024/03/11 09:58:20;;;;;;;;;;;;;;;14.77;64.48;99651.06;5047019;28;20342;-81
2024/03/11 10:00:49;;;;;;;;;;;;;;;14.78;64.01;99648.22;5032472;28;20423;-81
2024/03/11 10:03:16;;;;;;;;;;;;;;;14.81;63.97;99649.66;5051502;28;19928;-81
2024/03/11 10:05:44;;;;;;;;;;;;;;;14.81;63.91;99653.13;5033988;28;19917;-81
2024/03/11 10:08:10;;;;;;;;;;;;;;;14.81;64.58;99645.16;5053219;28;19923;-81
2024/03/11 10:10:35;;;;;;;;;;;;;;;14.83;63.81;99645.78;5055311;28;19916;-81
2024/03/11 10:13:04;;;;;;;;;;;;;;;14.85;64.04;99648.22;5063509;28;19928;-81
2024/03/11 10:15:30;;;;;;;;;;;;;;;14.89;64.17;99646.81;5060563;28;20007;-81
2024/03/11 10:17:56;;;;;;;;;;;;;;;14.96;64.38;99660.94;5045462;28;19933;-81
2024/03/11 10:20:22;;;;;;;;;;;;;;;15.03;64.17;99664.44;5049852;28;19921;-81
2024/03/11 10:22:48;;;;;;;;;;;;;;;15.12;63.80;99657.88;5039313;28;19923;-81
2024/03/11 10:25:21;;;;;;;;;;;;;;;15.24;63.03;99664.22;5051000;28;19942;-81
2024/03/11 10:27:47;;;;;;;;;;;;;;;15.36;63.01;99666.25;5051066;28;19923;-81
2024/03/11 10:30:20;;;;;;;;;;;;;;;15.43;61.49;99680.38;5050862;28;19999;-81
2024/03/11 10:32:51;;;;;;;;;;;;;;;15.55;61.31;99668.06;5051612;28;19913;-81
2024/03/11 10:35:20;;;;;;;;;;;;;;;15.64;60.84;99669.56;5051854;28;19917;-81
2024/03/11 10:37:45;;;;;;;;;;;;;;;15.70;60.33;99670.56;5051775;28;20328;-81
2024/03/11 10:40:17;;;;;;;;;;;;;;;15.74;61.06;99669.13;5051157;28;19920;-81
2024/03/11 10:42:49;;;;;;;;;;;;;;;15.83;60.12;99663.38;5050981;28;19923;-81
2024/03/11 10:45:28;;;;;;;;;;;;;;;15.94;60.51;99669.06;5050346;28;19970;-81
2024/03/11 10:47:54;;;;;;;;;;;;;;;15.99;60.07;99653.28;5046707;28;20360;-81
2024/03/11 10:50:20;;;;;;;;;;;;;;;16.08;60.33;99650.16;5038817;28;19973;-81
2024/03/11 10:52:48;;;;;;;;;;;;;;;16.21;59.63;99646.63;5051521;28;20405;-81
2024/03/11 10:55:14;;;;;;;;;;;;;;;16.32;59.98;99637.97;5051414;28;19920;-81
2024/03/11 10:57:43;;;;;;;;;;;;;;;16.40;59.37;99644.94;5050011;28;20367;-81
2024/03/11 11:00:19;;;;;;;;;;;;;;;16.51;59.27;99636.25;5046965;28;19917;-81
2024/03/11 11:02:49;;;;;;;;;;;;;;;16.57;59.37;99638.06;5043436;28;19928;-81
2024/03/11 11:05:17;;;;;;;;;;;;;;;16.60;58.71;99629.63;5054232;28;19923;-81
2024/03/11 11:07:43;;;;;;;;;;;;;;;16.72;58.35;99635.13;5052665;28;19917;-81
2024/03/11 11:10:11;;;;;;;;;;;;;;;16.79;57.90;99631.38;5057033;28;19951;-81
2024/03/11 11:12:36;;;;;;;;;;;;;;;16.81;57.11;99623.16;5056723;28;20014;-81
2024/03/11 11:15:12;;;;;;;;;;;;;;;16.91;56.80;99618.16;5046079;28;19952;-81
2024/03/11 11:17:39;;;;;;;;;;;;;;;17.04;56.50;99595.91;5035289;28;19916;-80
2024/03/11 11:20:29;;;;;;;;;;;;;;;16.95;56.29;99595.38;5044479;28;19924;-80
2024/03/11 11:22:53;;;;;;;;;;;;;;;16.94;55.47;99614.25;5048757;28;19916;-80
2024/03/11 11:25:41;;;;;;;;;;;;;;;16.92;56.03;99598.47;5071057;28;19913;-79
2024/03/11 11:28:12;;;;;;;;;;;;;;;17.00;56.41;99597.38;5070554;28;19981;-79
2024/03/11 11:30:37;;;;;;;;;;;;;;;17.00;56.00;99600.03;5069756;28;19931;-80
2024/03/11 11:33:03;;;;;;;;;;;;;;;16.94;55.50;99599.06;5071341;28;19917;-80
2024/03/11 11:35:32;;;;;;;;;;;;;;;16.94;55.93;99604.41;5075315;28;20328;-81
2024/03/11 11:37:57;;;;;;;;;;;;;;;16.90;55.26;99591.72;5074905;28;20393;-80
2024/03/11 11:40:29;;;;;;;;;;;;;;;16.90;55.78;99587.19;5065851;28;19939;-81
2024/03/11 11:42:55;;;;;;;;;;;;;;;16.89;55.97;99585.56;5051989;28;20465;-78
2024/03/11 11:45:56;;;;;;;;;;;;;;;16.89;55.56;99574.91;5053630;28;19916;-81
2024/03/11 11:48:25;;;;;;;;;;;;;;;16.92;56.12;99577.13;5032503;28;19943;-81
2024/03/11 11:50:52;;;;;;;;;;;;;;;16.91;55.66;99574.69;5074202;28;19927;-79
2024/03/11 11:53:29;;;;;;;;;;;;;;;16.86;55.68;99570.00;5073232;28;19919;-80
2024/03/11 11:55:56;;;;;;;;;;;;;;;16.86;55.74;99577.19;5064419;28;19917;-80
2024/03/11 11:58:22;;;;;;;;;;;;;;;16.80;55.87;99565.53;5066458;28;19921;-80
2024/03/11 12:00:56;;;;;;;;;;;;;;;16.77;56.09;99561.47;5056693;28;19996;-80
2024/03/11 12:03:32;;;;;;;;;;;;;;;16.74;56.28;99559.22;5054402;28;20412;-80
2024/03/11 12:06:08;;;;;;;;;;;;;;;16.75;56.13;99554.72;5055070;28;19951;-80
2024/03/11 12:08:33;;;;;;;;;;;;;;;16.75;56.20;99550.19;5074461;28;19913;-80
2024/03/11 12:11:10;;;;;;;;;;;;;;;16.72;56.41;99563.97;5060608;28;19923;-79
2024/03/11 12:13:37;;;;;;;;;;;;;;;16.74;56.43;99550.41;5042212;28;20257;-80
2024/03/11 12:16:20;;;;;;;;;;;;;;;16.76;56.47;99556.34;5033269;28;19920;-81
2024/03/11 12:18:56;;;;;;;;;;;;;;;16.72;56.32;99555.97;5046425;28;19988;-81
2024/03/11 12:21:23;;;;;;;;;;;;;;;16.69;56.36;99553.72;5054698;28;19956;-81
2024/03/11 12:23:50;;;;;;;;;;;;;;;16.68;56.48;99545.94;5049615;28;19917;-81
2024/03/11 12:26:15;;;;;;;;;;;;;;;16.65;56.55;99543.69;5060102;28;19960;-82
2024/03/11 12:29:00;;;;;;;;;;;;;;;16.64;56.51;99542.88;5072733;28;19944;-81
2024/03/11 12:31:25;;;;;;;;;;;;;;;16.64;56.40;99518.88;5073496;28;19966;-81
2024/03/11 12:33:51;;;;;;;;;;;;;;;16.61;56.32;99531.81;5051785;28;20437;-81
2024/03/11 12:36:17;;;;;;;;;;;;;;;16.58;56.17;99525.09;5052466;28;19923;-81
2024/03/11 12:38:42;;;;;;;;;;;;;;;16.57;55.83;99530.63;5060681;28;20251;-80
2024/03/11 12:41:09;;;;;;;;;;;;;;;16.56;55.64;99524.47;5056803;28;19932;-81
2024/03/11 12:43:41;;;;;;;;;;;;;;;16.57;55.88;99522.63;5052342;28;20002;-81
2024/03/11 12:46:10;;;;;;;;;;;;;;;16.59;55.41;99521.38;5051828;28;20329;-81
2024/03/11 12:48:35;;;;;;;;;;;;;;;16.61;55.10;99506.00;5052745;28;19916;-81
2024/03/11 12:51:05;;;;;;;;;;;;;;;16.60;54.62;99515.03;5053353;28;19923;-81